KCOQ

Cloquet Carlton County Airport

Cloquet, Minnesota, USA
METAR KCOQ 172115Z AUTO 30012G17KT 10SM SCT047 M03/M13 A2979 RMK AO2
Observed Flight Rules
Feb-17 @ 21:15 UTC (20 minutes ago) Visual Flight Rules
Wind Visibility Clouds
300° at 12 knots
 Gusting to 17 knots
10 miles
  • Scattered at 4,700' AGL
Temperatures Readings
Current -3°C / 27°F
Dewpoint -13°C / 9°F
Humidity 46%
Altimeter 29.79" Hg
Pressure 1009 hPa
Elevation 390
METAR KCOQ 172115Z AUTO 30012G17KT 10SM SCT047 M03/M13 A2979 RMK AO2
Observed Flight Rules
Feb-17 @ 21:15 UTC
(20 minutes ago)
VFR
Wind Visibility
300° at 12 knots
 Gusting to 17 knots
10 miles
Clouds
  • Scattered at 4,700' AGL
Temperature Dewpoint
-3°C / 27°F -13°C / 9°F
Humidity Altimeter Pressure
46% 29.79" Hg 1009 hPa